Accueil
METAR-TAF:

METAR-TAF

Aéroports :

Schwäbisch Hall, Allemagne

latitude: 49-07-06N, longitude: 9-47-02E, altitude: 398 m

Observation

Le bulletin a été fait il y a 40 minutes, à 02:20 UTC
Vent 4 kt de sud/sud-ouest
Température 13°C
Humidité 94%
Pression 1014 hPa
Visibilité 10 km ou plus

METAR: EDTY 020220Z AUTO 21004KT 9999 // FEW080/// BKN100/// 13/12 Q1014

Heure: 05:00 (03:00 UTC)

Prévision

Le bulletin a été fait il y a 10 heures et 0 minutes, à 17:00 UTC
Prévision valable du 01 à 18 UTC au 02 à 03 UTC
Vent 4 kt de sud-ouest
Visibilité 10 km ou plus
Nuages épars à une hauteur de 4000 ft
Probabilité 40% :
Temporairement
du 01 à 23 UTC au 02 à 03 UTC
Nuages fragmentés à une hauteur de 900 ft

TAF: EDTY 011700Z 0118/0203 23004KT 9999 SCT040 PROB40 TEMPO 0123/0203 BKN009

Observations et prévisions météorologiques de plus de 4000 aéroports (messages METAR et TAF).

Les stations disponibles sont représentées par des disques jaunes et rouges sur la carte.

Passer la souris dessus pour voir le nom de la station.

Cliquer dessus pour voir les observations et prévisions météorologiques.

Pour changer de carte: cliquez sur les boutons verts avec une croix noire pour zoomer, sur le bouton vert avec un tiret pour effectuer un zoom arrière, ou sur les flèches vertes pour les cartes adjacentes.


METAR-TAF: